Time;durP1;ratioP1;P1;durP2;ratioP2;P2;SDS_P1;SDS_P2;PMS_P1;PMS_P2;Temp;Humidity;BMP_temperature;BMP_pressure;BME280_temperature;BME280_humidity;BME280_pressure;Samples;Min_cycle;Max_cycle;Signal;HPM_P1;HPM_P2
2022/08/12 00:43:15;;;;;;;4.32;2.63;;;21.90;32.60;;;24.59;26.17;97794.09;5065640;28;20044;-44
2022/08/12 00:48:39;;;;;;;3.67;2.50;;;21.90;32.90;;;24.55;26.64;97793.75;5050312;28;20247;-43
2022/08/12 00:51:08;;;;;;;3.33;2.72;;;21.90;33.20;;;24.49;26.62;97792.81;5065661;28;20048;-43
2022/08/12 00:53:38;;;;;;;3.15;2.80;;;21.80;33.30;;;24.49;26.59;97792.81;5065480;28;20051;-44
2022/08/12 00:56:06;;;;;;;3.85;2.42;;;21.80;33.10;;;24.48;26.79;97793.88;5066420;28;20063;-45
2022/08/12 00:58:35;;;;;;;5.13;2.58;;;21.90;33.50;;;24.48;26.81;97795.78;5065325;28;20054;-43
2022/08/12 01:01:07;;;;;;;3.58;2.53;;;21.80;33.40;;;24.48;26.65;97802.03;5063681;28;20062;-43
2022/08/12 01:12:11;;;;;;;4.50;2.33;;;21.80;33.80;;;24.38;27.07;97791.00;5064783;28;20052;-44
2022/08/12 01:14:40;;;;;;;6.20;2.75;;;21.70;33.90;;;24.35;26.89;97788.78;5064279;28;20074;-45
2022/08/12 01:17:08;;;;;;;2.83;2.53;;;21.70;34.00;;;24.33;27.37;97788.16;5064342;28;20067;-42
2022/08/12 01:19:37;;;;;;;3.35;2.55;;;21.80;34.00;;;24.32;27.32;97787.34;5064652;28;20067;-43
2022/08/12 01:22:51;;;;;;;3.30;2.35;;;21.80;33.90;;;24.41;27.26;97782.34;5066001;28;20044;-48
2022/08/12 01:25:21;;;;;;;4.03;2.47;;;21.90;35.00;;;24.43;27.32;97788.34;5064294;28;20063;-45
2022/08/12 01:27:51;;;;;;;3.00;2.58;;;21.90;34.10;;;24.40;27.52;97786.13;5067020;28;20056;-46
2022/08/12 01:30:20;;;;;;;4.15;2.65;;;21.90;34.10;;;24.40;27.61;97791.56;5068413;28;20182;-44
2022/08/12 01:32:50;;;;;;;5.85;2.40;;;21.90;34.10;;;24.39;27.57;97787.22;5068754;28;20059;-44
2022/08/12 01:35:18;;;;;;;3.00;2.70;;;21.90;34.30;;;24.40;27.45;97788.03;5068605;28;20233;-45
2022/08/12 01:37:48;;;;;;;3.45;2.85;;;21.90;34.20;;;24.37;27.80;97790.16;5067917;28;20377;-43
2022/08/12 01:40:18;;;;;;;3.97;2.30;;;21.80;34.40;;;24.37;27.58;97795.63;5068453;28;20227;-42
2022/08/12 01:43:12;;;;;;;3.03;2.70;;;21.80;34.60;;;24.40;27.54;97785.31;5068357;28;20063;-45
2022/08/12 01:46:40;;;;;;;4.65;3.15;;;21.80;34.90;;;24.37;27.55;97786.63;5069982;28;20234;-45
2022/08/12 01:49:32;;;;;;;4.95;2.80;;;21.70;35.70;;;24.33;27.35;97780.84;5019659;28;20071;-47
2022/08/12 01:52:04;;;;;;;3.85;2.70;;;21.60;35.10;;;24.21;27.84;97776.56;5068935;28;20056;-44
2022/08/12 01:54:50;;;;;;;2.92;2.63;;;21.50;35.00;;;24.12;27.94;97776.97;5069998;28;20048;-43
2022/08/12 01:57:43;;;;;;;3.13;2.60;;;21.40;35.30;;;24.04;28.12;97771.94;5069099;28;20049;-42
2022/08/12 02:00:47;;;;;;;3.53;2.90;;;21.30;36.20;;;24.00;28.18;97780.81;5068542;28;20047;-45
2022/08/12 02:13:20;;;;;;;4.30;2.70;;;20.90;37.10;;;23.71;28.58;97767.19;5067357;28;20048;-42
2022/08/12 02:16:52;;;;;;;3.83;3.00;;;20.80;37.20;;;23.61;28.59;97762.38;5068989;28;20048;-45
2022/08/12 02:19:45;;;;;;;3.28;2.58;;;20.70;38.10;;;23.54;28.88;97773.41;5068128;28;20060;-43
2022/08/12 02:22:29;;;;;;;4.97;2.77;;;20.60;38.40;;;23.46;28.64;97776.50;5067771;28;20056;-43
2022/08/12 02:25:17;;;;;;;3.33;2.88;;;20.60;38.60;;;23.41;29.14;97779.13;5067759;28;20690;-42
2022/08/12 02:27:49;;;;;;;4.43;2.95;;;20.50;38.70;;;23.30;29.29;97780.81;5068315;28;20049;-43
2022/08/12 02:30:25;;;;;;;4.35;3.00;;;20.40;37.70;;;23.25;29.46;97774.44;5068584;28;20127;-46
2022/08/12 02:33:04;;;;;;;3.35;2.90;;;20.50;38.00;;;23.19;29.62;97770.78;5068445;28;20056;-42
2022/08/12 02:35:35;;;;;;;3.45;2.85;;;20.40;37.70;;;23.14;29.65;97776.09;5069824;28;20052;-43
2022/08/12 02:38:07;;;;;;;6.07;3.58;;;20.40;37.70;;;23.05;29.82;97769.38;5069034;28;20058;-41
2022/08/12 02:40:44;;;;;;;3.37;3.07;;;20.30;37.80;;;23.03;29.82;97766.94;5068824;28;20044;-45
2022/08/12 02:43:29;;;;;;;4.10;2.90;;;20.20;38.30;;;23.00;29.58;97761.94;5065834;28;20052;-43
2022/08/12 02:46:10;;;;;;;3.60;2.70;;;20.20;38.90;;;22.95;29.73;97761.81;5068713;28;20106;-44
2022/08/12 02:48:59;;;;;;;3.10;2.67;;;20.20;38.60;;;22.94;29.61;97777.28;5066108;28;20056;-45
2022/08/12 02:51:40;;;;;;;4.28;2.65;;;20.10;38.70;;;22.92;30.01;97767.75;5067045;28;20349;-42
2022/08/12 02:54:08;;;;;;;3.10;2.80;;;20.10;38.90;;;22.86;29.83;97763.25;5067376;28;20071;-43
2022/08/12 02:56:39;;;;;;;4.22;2.72;;;20.10;38.40;;;22.81;30.30;97759.34;5068357;28;20058;-42
2022/08/12 02:59:12;;;;;;;4.00;2.85;;;20.10;38.60;;;22.79;30.06;97758.75;5066817;28;20216;-44
2022/08/12 03:01:48;;;;;;;4.43;2.83;;;20.10;38.50;;;22.79;30.12;97761.47;5066974;28;20234;-46
2022/08/12 03:04:49;;;;;;;4.80;3.30;;;20.10;39.00;;;22.76;29.97;97756.53;5066986;28;20358;-42
2022/08/12 03:07:25;;;;;;;7.10;3.10;;;20.00;38.80;;;22.72;29.96;97760.78;5067082;28;20062;-42
2022/08/12 03:10:14;;;;;;;3.30;2.90;;;19.90;38.80;;;22.66;29.95;97761.72;5065730;28;20067;-42
2022/08/12 03:12:56;;;;;;;4.53;2.47;;;19.90;38.60;;;22.62;30.43;97752.41;5067793;28;20250;-43
2022/08/12 03:15:24;;;;;;;5.25;2.70;;;19.80;38.70;;;22.55;30.33;97760.66;5066036;28;20251;-45
2022/08/12 03:18:13;;;;;;;3.90;2.65;;;19.80;38.90;;;22.50;30.60;97754.28;5066492;28;20243;-43
2022/08/12 03:21:00;;;;;;;3.28;2.95;;;19.70;38.90;;;22.50;30.51;97767.84;5064791;28;20041;-44
2022/08/12 03:23:29;;;;;;;2.92;2.63;;;19.70;39.10;;;22.45;30.63;97763.16;5066509;28;20354;-42
2022/08/12 03:26:00;;;;;;;5.50;3.08;;;19.70;39.20;;;22.41;30.62;97762.78;5067027;28;20045;-44
2022/08/12 03:28:49;;;;;;;6.00;2.90;;;19.60;39.10;;;22.38;30.51;97770.56;5068654;28;20733;-42
2022/08/12 03:31:20;;;;;;;3.50;2.88;;;19.50;39.70;;;22.30;31.11;97768.19;5065961;28;20044;-43
2022/08/12 03:33:50;;;;;;;4.20;2.80;;;19.50;39.70;;;22.25;31.03;97765.34;5064034;28;20056;-43
2022/08/12 03:36:35;;;;;;;3.78;3.45;;;19.40;39.90;;;22.23;30.92;97760.13;5067137;28;20432;-42
2022/08/12 03:42:00;;;;;;;4.65;3.05;;;19.30;40.10;;;22.18;30.81;97762.72;5067318;28;20051;-42
2022/08/12 04:01:57;;;;;;;4.30;2.67;;;19.20;40.50;;;21.94;31.83;97769.97;5066122;28;20059;-43
2022/08/12 04:04:32;;;;;;;4.72;3.40;;;19.10;40.70;;;21.89;31.60;97767.94;5065311;28;20056;-44
2022/08/12 04:07:06;;;;;;;4.05;3.00;;;19.00;40.90;;;21.87;31.60;97766.50;5065437;28;20053;-44
2022/08/12 04:09:38;;;;;;;4.00;2.70;;;19.10;41.10;;;21.88;32.20;97768.19;5066764;28;20358;-42
2022/08/12 04:15:00;;;;;;;4.70;2.78;;;19.00;41.10;;;21.88;32.25;97779.00;5067228;28;20048;-45
2022/08/12 04:17:29;;;;;;;5.20;3.17;;;19.10;41.20;;;21.86;32.01;97779.25;5065811;28;20049;-42
2022/08/12 04:19:58;;;;;;;3.65;2.88;;;19.10;41.10;;;21.83;32.36;97780.53;5063536;28;20063;-43
2022/08/12 04:22:29;;;;;;;3.42;2.72;;;19.10;41.20;;;21.82;32.31;97778.06;5065361;28;20056;-44
2022/08/12 04:25:07;;;;;;;4.18;2.92;;;19.10;41.50;;;21.80;32.18;97778.28;5066881;28;20262;-43
2022/08/12 04:27:35;;;;;;;4.07;3.03;;;19.10;41.70;;;21.77;32.35;97773.34;5067152;28;20472;-42
2022/08/12 04:30:06;;;;;;;4.70;2.90;;;19.00;41.70;;;21.74;32.40;97771.06;5066769;28;20243;-43
2022/08/12 04:32:54;;;;;;;6.40;3.33;;;19.00;41.80;;;21.78;32.57;97771.44;5066969;28;20255;-45
2022/08/12 04:35:22;;;;;;;4.05;3.28;;;19.00;41.80;;;21.75;32.56;97767.31;5067096;28;20227;-44
2022/08/12 04:37:56;;;;;;;3.75;2.95;;;19.00;41.90;;;21.72;32.45;97766.94;5065031;28;20055;-42
2022/08/12 04:40:30;;;;;;;3.83;3.13;;;18.90;42.30;;;21.70;32.85;97761.75;5066434;28;20052;-44
2022/08/12 04:42:59;;;;;;;4.65;3.38;;;19.00;42.20;;;21.70;33.02;97769.06;5065392;28;20249;-44
2022/08/12 04:45:30;;;;;;;4.22;3.30;;;18.90;42.20;;;21.69;32.67;97765.50;5064708;28;20057;-42
2022/08/12 04:48:00;;;;;;;3.42;3.08;;;19.00;42.20;;;21.69;32.71;97765.50;5066366;28;20060;-45
2022/08/12 04:50:31;;;;;;;5.22;3.75;;;18.90;42.10;;;21.70;32.72;97763.66;5063833;28;20245;-43
2022/08/12 04:53:08;;;;;;;4.38;3.40;;;18.90;42.30;;;21.70;33.01;97767.16;5065266;28;20063;-43
2022/08/12 04:55:38;;;;;;;3.42;3.13;;;18.90;43.00;;;21.69;32.86;97770.94;5067304;28;20052;-45
2022/08/12 04:58:07;;;;;;;7.60;3.63;;;18.90;42.70;;;21.69;32.83;97770.09;5065811;28;20052;-44
2022/08/12 05:00:36;;;;;;;4.22;3.00;;;18.90;42.70;;;21.69;33.39;97770.94;5065170;28;20494;-44
2022/08/12 05:03:06;;;;;;;5.07;2.85;;;18.90;43.50;;;21.68;33.13;97771.19;5069904;28;20047;-43
2022/08/12 05:05:36;;;;;;;7.10;3.00;;;19.00;42.90;;;21.69;33.49;97768.22;5071259;28;20058;-42
2022/08/12 05:08:17;;;;;;;4.75;3.58;;;19.00;42.80;;;21.75;33.38;97777.31;5068936;28;20399;-42
2022/08/12 05:10:47;;;;;;;4.90;3.40;;;19.10;43.30;;;21.75;33.09;97777.31;5069495;28;20044;-43
2022/08/12 05:13:32;;;;;;;4.68;3.28;;;19.10;42.90;;;21.79;33.37;97776.63;5069025;28;20049;-42
2022/08/12 05:16:00;;;;;;;4.13;3.67;;;19.20;43.30;;;21.79;33.24;97776.63;5069614;28;20362;-44
2022/08/12 05:18:38;;;;;;;5.75;3.45;;;19.20;42.50;;;21.82;33.16;97778.06;5068318;28;20364;-45
2022/08/12 05:21:08;;;;;;;4.82;2.88;;;19.20;42.70;;;21.82;33.43;97775.34;5068453;28;20052;-45
2022/08/12 05:23:39;;;;;;;4.72;3.67;;;19.20;42.40;;;21.84;33.04;97784.06;5069963;28;20158;-43
2022/08/12 05:26:07;;;;;;;5.22;3.17;;;19.20;42.50;;;21.83;33.08;97785.13;5069578;28;20247;-44
2022/08/12 05:28:36;;;;;;;6.28;3.72;;;19.20;42.40;;;21.86;33.34;97794.69;5068353;28;20045;-46
2022/08/12 05:31:04;;;;;;;4.90;3.08;;;19.30;42.30;;;21.85;32.89;97791.16;5068381;28;20335;-44
2022/08/12 05:33:36;;;;;;;4.45;3.15;;;19.30;42.10;;;21.89;33.41;97792.34;5068457;28;20049;-45
2022/08/12 05:36:14;;;;;;;5.50;3.10;;;19.30;42.20;;;21.93;33.19;97795.44;5070240;28;20051;-44
2022/08/12 05:38:56;;;;;;;6.55;3.17;;;19.40;42.50;;;21.92;33.53;97801.88;5069160;28;20048;-45
2022/08/12 05:41:31;;;;;;;4.93;3.47;;;19.30;42.30;;;21.93;33.18;97806.25;5067236;28;20056;-44
2022/08/12 05:44:06;;;;;;;4.60;2.90;;;19.30;43.10;;;21.95;33.31;97807.69;5068813;28;20060;-45
2022/08/12 05:46:35;;;;;;;5.07;3.08;;;19.40;42.50;;;21.99;33.20;97817.00;5069167;28;20056;-43
2022/08/12 05:49:04;;;;;;;4.60;3.13;;;19.40;42.50;;;22.02;33.15;97813.84;5068177;28;20058;-50
2022/08/12 05:51:36;;;;;;;5.53;3.15;;;19.50;42.50;;;22.08;33.46;97811.25;5069943;28;20057;-43
2022/08/12 05:54:10;;;;;;;6.00;3.75;;;19.60;42.50;;;22.14;33.13;97822.00;5068535;28;20060;-44
2022/08/12 05:56:40;;;;;;;3.78;3.17;;;19.60;42.40;;;22.18;33.45;97833.22;5069610;28;20052;-45
2022/08/12 05:59:10;;;;;;;7.80;3.15;;;19.60;42.20;;;22.22;33.25;97823.56;5067826;28;20056;-47
2022/08/12 06:01:40;;;;;;;3.85;2.88;;;19.70;42.30;;;22.24;33.02;97829.56;5069490;28;20196;-47
2022/08/12 06:04:29;;;;;;;4.90;3.13;;;19.70;42.10;;;22.31;33.12;97841.16;5069313;28;20232;-45
2022/08/12 06:06:57;;;;;;;4.88;3.83;;;19.70;42.20;;;22.35;32.85;97827.97;5068586;28;20343;-49
2022/08/12 06:09:29;;;;;;;4.05;3.10;;;19.80;41.80;;;22.38;32.78;97822.91;5067856;28;20491;-49
2022/08/12 06:11:57;;;;;;;4.05;3.25;;;19.80;41.80;;;22.41;32.97;97825.16;5069322;28;20044;-45
2022/08/12 06:14:36;;;;;;;3.50;2.78;;;19.90;41.70;;;22.48;32.70;97829.66;5067668;28;20048;-49
2022/08/12 06:17:09;;;;;;;4.53;2.80;;;19.90;41.90;;;22.53;32.97;97827.06;5068217;28;20222;-47
2022/08/12 06:19:36;;;;;;;5.90;3.28;;;20.00;41.60;;;22.54;32.54;97829.53;5067991;28;20263;-46
2022/08/12 06:22:25;;;;;;;3.40;3.10;;;20.00;41.60;;;22.59;32.79;97829.66;5068782;28;20048;-43
2022/08/12 06:24:53;;;;;;;4.55;3.13;;;20.10;41.60;;;22.60;32.77;97828.63;5068013;28;20366;-49
2022/08/12 06:27:21;;;;;;;12.88;4.43;;;20.20;41.40;;;22.65;32.90;97835.22;5067702;28;20048;-44
2022/08/12 06:29:49;;;;;;;4.90;3.50;;;20.20;41.30;;;22.68;32.82;97837.47;5068058;28;20058;-44
2022/08/12 06:32:37;;;;;;;6.55;3.40;;;20.20;41.40;;;22.77;32.83;97827.91;5066242;28;20055;-48
2022/08/12 06:35:26;;;;;;;9.50;3.63;;;20.30;41.30;;;22.83;32.60;97829.69;5068208;28;20071;-48
2022/08/12 06:38:24;;;;;;;12.45;3.78;;;20.40;41.30;;;22.89;32.96;97825.19;5068651;28;20075;-46
2022/08/12 06:43:43;;;;;;;10.30;3.25;;;20.50;41.10;;;22.92;32.77;97833.69;5068035;28;20032;-46
2022/08/12 06:46:31;;;;;;;10.45;4.45;;;20.50;40.90;;;22.99;32.47;97826.28;5066225;28;20055;-47
2022/08/12 06:48:59;;;;;;;11.98;5.20;;;20.60;40.70;;;23.02;32.34;97826.88;5068334;28;20052;-43
2022/08/12 06:51:30;;;;;;;6.38;3.90;;;20.60;40.80;;;23.07;32.49;97822.41;5066154;28;20347;-47
2022/08/12 06:54:00;;;;;;;5.85;3.20;;;20.70;40.80;;;23.12;32.69;97827.13;5067365;28;20047;-47
2022/08/12 06:56:29;;;;;;;4.68;3.50;;;20.70;40.90;;;23.17;32.41;97830.78;5067343;28;20067;-44
2022/08/12 06:59:19;;;;;;;7.35;3.35;;;20.80;40.70;;;23.23;32.63;97828.19;5067235;28;20055;-45
2022/08/12 07:01:48;;;;;;;9.88;4.18;;;20.70;40.80;;;23.24;32.44;97825.19;5067198;28;20298;-46
2022/08/12 07:04:19;;;;;;;8.57;3.92;;;20.80;41.00;;;23.28;32.48;97828.28;5067265;28;20052;-44
2022/08/12 07:07:09;;;;;;;14.82;4.40;;;20.80;41.10;;;23.35;32.36;97829.78;5065410;28;20234;-45
2022/08/12 07:09:41;;;;;;;5.95;3.75;;;20.90;41.20;;;23.39;32.48;97830.97;5067066;28;20045;-46
2022/08/12 07:12:30;;;;;;;4.30;3.35;;;20.90;40.90;;;23.45;32.43;97831.09;5065834;28;20052;-42
2022/08/12 07:15:00;;;;;;;5.22;3.25;;;21.00;40.90;;;23.46;32.59;97830.00;5066414;28;20060;-45
2022/08/12 07:17:34;;;;;;;7.20;3.47;;;21.10;40.80;;;23.50;32.39;97829.31;5066366;28;20060;-42
2022/08/12 07:20:09;;;;;;;10.45;3.75;;;21.10;40.80;;;23.54;32.39;97830.47;5067225;28;20548;-42
2022/08/12 07:22:58;;;;;;;7.93;4.03;;;21.20;40.70;;;23.63;32.27;97824.66;5066494;28;20053;-42
2022/08/12 07:25:33;;;;;;;6.47;2.90;;;21.20;40.50;;;23.63;32.20;97828.19;5065919;28;20070;-42
2022/08/12 07:28:17;;;;;;;4.13;2.95;;;21.30;40.50;;;23.71;32.37;97825.09;5066744;28;20078;-43
2022/08/12 07:30:50;;;;;;;10.45;3.70;;;21.40;40.50;;;23.78;32.26;97838.56;5066405;28;20067;-43
2022/08/12 07:33:23;;;;;;;5.82;3.00;;;21.50;40.30;;;23.82;31.89;97831.59;5064867;28;20247;-42
2022/08/12 07:35:53;;;;;;;4.15;3.22;;;21.50;40.20;;;23.87;32.16;97837.13;5066503;28;20062;-42
2022/08/12 07:38:37;;;;;;;7.03;3.53;;;21.50;40.30;;;23.94;32.04;97836.97;5067371;28;20044;-44
2022/08/12 07:41:19;;;;;;;3.03;2.58;;;21.60;40.30;;;23.99;31.88;97831.66;5067324;28;20056;-45
2022/08/12 07:43:55;;;;;;;5.47;3.28;;;21.60;39.90;;;24.03;32.03;97829.28;5065618;28;20060;-43
2022/08/12 07:46:37;;;;;;;5.72;2.90;;;21.70;40.10;;;24.10;31.81;97832.69;5065533;28;20049;-44
2022/08/12 07:49:12;;;;;;;4.15;3.00;;;21.70;39.40;;;24.14;31.71;97829.22;5067458;28;20334;-43
2022/08/12 07:51:42;;;;;;;3.08;2.63;;;21.80;39.40;;;24.19;31.48;97828.47;5066685;28;20160;-44
2022/08/12 07:54:11;;;;;;;3.25;2.45;;;21.90;39.10;;;24.25;31.14;97824.75;5067029;28;20048;-45
2022/08/12 07:56:41;;;;;;;2.75;2.30;;;22.00;38.70;;;24.29;30.97;97828.66;5082078;28;20432;-43
2022/08/12 07:59:09;;;;;;;2.80;2.50;;;22.10;38.40;;;24.37;30.54;97830.16;5070809;28;20387;-43
2022/08/12 08:01:38;;;;;;;3.63;2.80;;;22.10;38.10;;;24.43;30.48;97831.03;5095765;28;20237;-43
2022/08/12 08:06:53;;;;;;;4.50;2.50;;;22.20;37.90;;;24.56;30.36;97825.31;5093574;28;20052;-46
2022/08/12 08:09:22;;;;;;;5.30;3.05;;;22.30;37.60;;;24.58;30.43;97811.47;5095526;28;20047;-46
2022/08/12 08:14:46;;;;;;;3.15;2.85;;;22.40;37.50;;;24.72;29.98;97812.81;5090797;28;20051;-43
2022/08/12 08:17:17;;;;;;;4.80;2.88;;;22.50;37.30;;;24.74;30.16;97806.03;5096545;28;20047;-43
2022/08/12 08:19:51;;;;;;;3.92;3.10;;;22.50;37.30;;;24.79;30.29;97802.53;5092972;28;20062;-45
2022/08/12 08:22:33;;;;;;;3.47;2.72;;;22.60;37.30;;;24.88;30.17;97817.38;5088381;28;20046;-43
2022/08/12 08:25:12;;;;;;;4.65;3.13;;;22.60;37.30;;;24.94;29.98;97813.66;5087966;28;20048;-46
2022/08/12 08:28:07;;;;;;;5.05;3.38;;;22.60;37.20;;;25.02;29.87;97814.31;5095839;28;20368;-45
2022/08/12 08:30:38;;;;;;;3.03;2.70;;;22.70;37.10;;;25.06;29.76;97818.19;5097506;28;20036;-45
2022/08/12 08:33:08;;;;;;;3.70;3.00;;;22.80;37.00;;;25.07;29.74;97815.22;5097533;28;20058;-45
2022/08/12 08:35:52;;;;;;;6.10;3.08;;;22.80;37.00;;;25.14;29.59;97821.31;5096910;28;20056;-43
2022/08/12 08:38:21;;;;;;;5.50;3.70;;;22.80;36.90;;;25.17;29.78;97827.34;5100819;28;20342;-43
2022/08/12 08:44:11;;;;;;;4.18;2.95;;;22.90;36.70;;;25.28;29.59;97812.78;5101076;28;20060;-44
2022/08/12 08:46:40;;;;;;;5.45;3.10;;;23.00;36.90;;;25.28;29.92;97813.63;5101342;28;20071;-44
2022/08/12 08:49:07;;;;;;;9.13;2.70;;;23.10;36.90;;;25.35;29.24;97810.72;5098674;28;20429;-44
2022/08/12 08:51:37;;;;;;;3.30;2.55;;;23.10;36.10;;;25.43;29.05;97806.72;5098670;28;20050;-43
2022/08/12 08:54:11;;;;;;;4.35;3.00;;;23.20;35.80;;;25.51;29.01;97811.72;5097858;28;20374;-45
2022/08/12 08:57:00;;;;;;;5.28;2.72;;;23.30;35.70;;;25.60;28.78;97804.75;5099680;28;20053;-44
2022/08/12 08:59:28;;;;;;;3.38;2.78;;;23.40;35.60;;;25.71;28.89;97803.81;5092728;28;20358;-43
2022/08/12 09:01:57;;;;;;;3.55;2.50;;;23.50;35.50;;;25.78;28.58;97806.31;5101188;28;20350;-44
2022/08/12 09:04:27;;;;;;;3.45;2.50;;;23.50;35.40;;;25.84;27.90;97801.75;5100693;28;20048;-44
2022/08/12 09:07:16;;;;;;;4.22;2.28;;;23.60;34.20;;;25.96;27.69;97801.63;5101134;28;20044;-44
2022/08/12 09:10:06;;;;;;;4.20;2.88;;;23.70;34.20;;;26.03;26.87;97800.34;5099714;28;20043;-43
2022/08/12 09:15:51;;;;;;;5.32;2.65;;;23.90;32.80;;;26.19;26.81;97793.16;5100520;28;20048;-43
2022/08/12 09:18:25;;;;;;;3.85;2.50;;;24.00;32.70;;;26.25;26.81;97802.19;5113737;28;20051;-43
2022/08/12 09:21:00;;;;;;;2.88;2.42;;;24.10;32.60;;;26.30;26.34;97800.31;5099329;28;20042;-42
2022/08/12 09:23:49;;;;;;;2.67;2.40;;;24.10;32.40;;;26.38;26.50;97793.56;5099041;28;20064;-45
2022/08/12 09:26:36;;;;;;;5.20;2.45;;;24.10;32.20;;;26.46;26.51;97800.47;5095942;28;20262;-46
2022/08/12 09:29:19;;;;;;;2.72;2.50;;;24.30;32.10;;;26.50;26.64;97788.78;5098711;28;20040;-45
2022/08/12 09:32:08;;;;;;;6.55;2.70;;;24.30;32.10;;;26.58;26.28;97789.38;5099844;28;20043;-46
2022/08/12 09:34:56;;;;;;;6.18;2.50;;;24.30;32.30;;;26.62;26.13;97791.38;5096236;28;20052;-43
2022/08/12 09:37:25;;;;;;;5.07;3.33;;;24.40;32.00;;;26.66;26.23;97791.66;5097665;28;20047;-48
2022/08/12 09:39:53;;;;;;;3.95;2.50;;;24.50;32.40;;;26.71;26.27;97787.06;5099562;28;20044;-43
2022/08/12 09:45:44;;;;;;;3.83;2.38;;;24.50;32.00;;;26.84;26.25;97768.56;5100346;28;20388;-48
2022/08/12 09:48:33;;;;;;;7.40;2.58;;;24.60;31.90;;;26.88;26.25;97770.50;5096713;28;20287;-44
2022/08/12 09:51:07;;;;;;;3.67;2.60;;;24.60;31.70;;;26.90;25.71;97762.84;5099440;28;20077;-43
2022/08/12 09:53:50;;;;;;;3.25;2.25;;;24.70;31.70;;;26.99;25.51;97760.47;5098772;28;20040;-43
2022/08/12 09:56:44;;;;;;;6.00;2.47;;;24.70;31.20;;;27.05;25.27;97751.22;5099350;28;20364;-44
2022/08/12 09:59:29;;;;;;;3.42;2.63;;;24.80;30.70;;;27.10;25.37;97753.97;5098970;28;20706;-45
2022/08/12 10:02:16;;;;;;;5.50;2.78;;;24.80;30.80;;;27.14;25.35;97747.97;5097685;28;20042;-44
2022/08/12 10:05:08;;;;;;;3.53;2.75;;;24.90;30.70;;;27.18;25.26;97744.44;5099130;28;20036;-46
2022/08/12 10:07:44;;;;;;;6.88;2.88;;;24.90;30.70;;;27.23;24.89;97743.63;5098834;28;20043;-44
2022/08/12 10:10:12;;;;;;;4.25;2.50;;;24.90;30.40;;;27.23;25.19;97743.63;5099202;28;20078;-43
2022/08/12 10:16:05;;;;;;;5.35;2.72;;;25.10;29.80;;;27.42;24.36;97730.34;5105064;27;20060;-44
2022/08/12 10:18:54;;;;;;;4.05;2.10;;;25.10;29.90;;;27.44;25.01;97731.72;5118276;28;20063;-43
2022/08/12 10:21:29;;;;;;;4.82;2.25;;;25.20;29.90;;;27.52;25.18;97732.31;5104923;27;20222;-43
2022/08/12 10:24:10;;;;;;;2.90;2.20;;;25.30;30.00;;;27.59;25.04;97722.75;5104270;28;20040;-44
2022/08/12 10:29:38;;;;;;;2.60;2.40;;;25.40;29.60;;;27.71;23.82;97724.44;5103936;28;20044;-43
2022/08/12 10:32:25;;;;;;;3.53;2.13;;;25.50;28.60;;;27.74;23.50;97716.47;5103974;28;20048;-43
2022/08/12 10:35:14;;;;;;;4.32;2.33;;;25.50;28.50;;;27.77;23.37;97721.41;5103907;28;20054;-42
2022/08/12 10:37:44;;;;;;;3.58;2.30;;;25.50;28.60;;;27.82;23.25;97720.59;5103433;28;20257;-43
2022/08/12 10:40:32;;;;;;;4.60;2.42;;;25.50;28.60;;;27.86;23.05;97719.78;5103260;28;20060;-44
2022/08/12 10:45:53;;;;;;;2.90;2.20;;;25.70;28.00;;;27.94;23.24;97696.59;5102345;28;20286;-42
2022/08/12 10:48:25;;;;;;;4.47;2.38;;;25.80;28.10;;;27.98;22.95;97699.59;5098582;28;20059;-44
2022/08/12 10:51:04;;;;;;;3.65;2.05;;;25.80;28.10;;;28.01;23.09;97705.31;5096279;28;20044;-43
2022/08/12 10:53:55;;;;;;;2.53;2.20;;;25.80;28.20;;;28.12;23.11;97700.69;5094479;28;20372;-42
2022/08/12 10:56:31;;;;;;;4.30;3.15;;;25.90;28.50;;;28.16;23.55;97712.72;5095387;28;20044;-42
2022/08/12 10:59:04;;;;;;;5.03;2.70;;;25.90;28.70;;;28.22;24.08;97708.88;5107556;27;20048;-44
2022/08/12 11:01:39;;;;;;;2.75;2.25;;;26.00;29.10;;;28.30;23.60;97702.03;5092203;28;20246;-43
2022/08/12 11:04:29;;;;;;;3.35;2.20;;;26.00;29.00;;;28.40;23.50;97706.69;5091004;28;20066;-42
2022/08/12 11:07:17;;;;;;;3.10;2.20;;;26.10;28.90;;;28.44;23.59;97692.19;5089134;28;20078;-42
2022/08/12 11:10:06;;;;;;;3.92;2.60;;;26.20;28.90;;;28.52;23.81;97690.00;5101577;28;20044;-44
2022/08/12 11:12:40;;;;;;;2.88;2.65;;;26.30;28.90;;;28.57;23.34;97692.75;5088788;28;20052;-43
2022/08/12 11:15:27;;;;;;;4.70;2.90;;;26.30;28.70;;;28.63;23.51;97686.16;5087409;28;20074;-43
2022/08/12 11:18:14;;;;;;;3.80;2.42;;;26.30;28.80;;;28.61;23.47;97682.88;5087744;28;20048;-44
2022/08/12 11:20:46;;;;;;;5.93;2.63;;;26.30;28.50;;;28.60;22.68;97678.50;5086920;28;20058;-43
2022/08/12 11:23:16;;;;;;;2.70;2.50;;;26.30;28.20;;;28.60;22.89;97678.50;5088471;28;20044;-43
2022/08/12 11:26:04;;;;;;;2.40;2.20;;;26.40;28.40;;;28.63;22.65;97683.41;5087056;28;20047;-43
2022/08/12 11:28:35;;;;;;;3.45;2.65;;;26.30;27.90;;;28.61;22.31;97675.47;5087081;28;20052;-43
2022/08/12 11:31:08;;;;;;;3.10;2.30;;;26.40;27.80;;;28.65;22.12;97678.47;5086451;28;20054;-43
2022/08/12 11:33:42;;;;;;;3.72;2.60;;;26.40;27.60;;;28.70;22.31;97672.19;5088432;28;20048;-45
2022/08/12 11:36:30;;;;;;;5.07;2.55;;;26.40;27.60;;;28.79;22.35;97684.19;5086526;28;20062;-44
2022/08/12 11:38:58;;;;;;;9.48;3.72;;;26.50;27.50;;;28.82;21.96;97672.69;5086634;28;20066;-43
2022/08/12 11:41:37;;;;;;;7.20;2.70;;;26.60;27.10;;;28.91;22.16;97675.69;5086941;28;20044;-43
2022/08/12 11:44:05;;;;;;;24.35;6.18;;;26.60;27.00;;;28.98;21.93;97663.28;5087433;28;20060;-44
2022/08/12 11:46:53;;;;;;;5.15;2.60;;;26.70;27.40;;;29.06;21.91;97662.72;5086381;28;20055;-44
2022/08/12 11:49:23;;;;;;;4.45;2.65;;;26.80;27.10;;;29.11;21.59;97656.41;5085658;28;20044;-42
2022/08/12 11:52:03;;;;;;;3.72;2.25;;;26.90;26.70;;;29.17;20.99;97658.03;5087834;28;20048;-43
2022/08/12 11:54:51;;;;;;;3.60;2.30;;;26.90;26.00;;;29.27;20.73;97654.41;5085995;28;20056;-44
2022/08/12 11:57:21;;;;;;;3.13;2.80;;;27.00;26.40;;;29.25;20.72;97653.88;5086545;28;20424;-43
2022/08/12 12:00:10;;;;;;;2.78;2.47;;;27.10;26.20;;;29.30;20.86;97645.66;5085697;28;20215;-44
2022/08/12 12:02:57;;;;;;;3.92;2.60;;;27.10;26.20;;;29.41;20.72;97663.69;5086035;28;20055;-44
2022/08/12 12:05:25;;;;;;;3.45;2.42;;;27.10;26.20;;;29.45;21.05;97648.28;5086880;28;20066;-43
2022/08/12 12:08:06;;;;;;;2.45;2.25;;;27.30;26.40;;;29.56;20.88;97646.28;5091440;28;20052;-44
2022/08/12 12:10:54;;;;;;;3.15;2.33;;;27.30;26.50;;;29.65;20.93;97650.06;5096913;28;20056;-43
2022/08/12 12:13:23;;;;;;;2.83;2.53;;;27.40;26.50;;;29.72;20.79;97643.44;5095989;28;20243;-42
2022/08/12 12:16:10;;;;;;;2.72;2.20;;;27.50;26.20;;;29.82;20.69;97644.22;5095694;28;20262;-45
2022/08/12 12:18:38;;;;;;;3.30;2.28;;;27.60;26.20;;;29.84;20.40;97641.19;5097400;28;20051;-44
2022/08/12 12:21:07;;;;;;;5.80;2.63;;;27.60;25.90;;;29.87;20.46;97645.28;5096570;28;20081;-44
2022/08/12 12:23:37;;;;;;;2.72;2.30;;;27.70;25.80;;;29.94;20.36;97637.56;5094208;28;20058;-43
2022/08/12 12:26:13;;;;;;;2.85;2.30;;;27.80;25.90;;;30.00;20.32;97637.22;5097729;28;20828;-45
2022/08/12 12:29:01;;;;;;;3.35;2.40;;;27.80;25.70;;;30.07;20.63;97638.78;5096972;28;20052;-42
2022/08/12 12:31:32;;;;;;;4.90;2.20;;;27.80;26.00;;;30.13;20.11;97630.25;5092099;28;20050;-43
2022/08/12 12:34:19;;;;;;;3.60;2.63;;;27.90;25.40;;;30.21;20.04;97629.63;5097416;28;20044;-43
2022/08/12 12:36:57;;;;;;;4.93;2.38;;;27.90;25.40;;;30.27;20.18;97632.31;5096236;28;20036;-45
2022/08/12 12:39:27;;;;;;;3.83;2.33;;;28.00;26.00;;;30.30;20.36;97626.22;5097327;28;20231;-42
2022/08/12 12:42:07;;;;;;;2.65;2.10;;;28.10;25.70;;;30.37;19.92;97632.25;5097175;28;20261;-43
2022/08/12 12:44:55;;;;;;;3.55;2.20;;;28.10;25.50;;;30.43;20.21;97631.06;5096723;28;20048;-43
2022/08/12 12:47:23;;;;;;;3.72;2.45;;;28.20;25.40;;;30.48;19.98;97627.47;5095598;28;20052;-42
2022/08/12 12:49:56;;;;;;;2.80;2.50;;;28.30;25.20;;;30.60;19.54;97625.94;5096205;28;20036;-44
2022/08/12 12:52:24;;;;;;;3.83;2.58;;;28.40;25.10;;;30.71;19.43;97620.31;5094000;28;20048;-43